Marlboro, New Jersey
Current Conditions -  °F | °C
As of 5:15 AM on Sunday 23 Nov 2014 (Local Time) from KBLM Reporting Station
Broken Clouds Broken Clouds  
Wind Chill: 36°   Ceiling: 12000
Heat Index: 41°   Visibility: 10mi
Dew Point: 19°   Wind: 8mph
Humidity: 42%   Direction: 240°WSW
Pressure: 30.2"   Gusts: NA
Location:  40.32°N, 74.25°W
Report Text: KBLM 231015Z AUTO 24007KT 10SM BKN120 05/M07 A3020 RMK AO1
Loading
Personal Weather Stations






























Interactive Weather Map New forecast layout! Learn more

10-Day Weather Forecast

Advertisements
Track Severe Weather on mobile